sensor_id;sensor_type;location;lat;lon;timestamp;P1;durP1;ratioP1;P2;durP2;ratioP2
9665;SDS011;4871;52.004;5.924;2024-03-23T00:52:00;17.50;;;2.20;;
9665;SDS011;4871;52.004;5.924;2024-03-23T00:53:00;17.50;;;2.20;;
9665;SDS011;4871;52.004;5.924;2024-03-23T00:54:00;17.50;;;2.20;;
9665;SDS011;4871;52.004;5.924;2024-03-23T00:55:00;17.50;;;2.20;;
9665;SDS011;4871;52.004;5.924;2024-03-23T00:56:00;24.90;;;3.00;;
9665;SDS011;4871;52.004;5.924;2024-03-23T00:57:00;24.90;;;3.00;;
9665;SDS011;4871;52.004;5.924;2024-03-23T00:58:00;24.90;;;3.00;;
9665;SDS011;4871;52.004;5.924;2024-03-23T00:59:00;24.90;;;3.00;;
9665;SDS011;4871;52.004;5.924;2024-03-23T01:00:00;24.90;;;3.00;;
9665;SDS011;4871;52.004;5.924;2024-03-23T01:01:00;24.90;;;3.00;;
9665;SDS011;4871;52.004;5.924;2024-03-23T01:02:00;24.90;;;3.00;;
9665;SDS011;4871;52.004;5.924;2024-03-23T01:03:00;24.90;;;3.00;;
9665;SDS011;4871;52.004;5.924;2024-03-23T01:04:00;24.90;;;3.00;;
9665;SDS011;4871;52.004;5.924;2024-03-23T01:05:00;24.90;;;3.00;;
9665;SDS011;4871;52.004;5.924;2024-03-23T01:06:00;24.90;;;3.00;;
9665;SDS011;4871;52.004;5.924;2024-03-23T01:07:00;24.90;;;3.00;;
9665;SDS011;4871;52.004;5.924;2024-03-23T01:08:00;24.90;;;3.00;;
9665;SDS011;4871;52.004;5.924;2024-03-23T01:09:00;24.90;;;3.00;;
9665;SDS011;4871;52.004;5.924;2024-03-23T01:10:00;24.90;;;3.00;;
9665;SDS011;4871;52.004;5.924;2024-03-23T01:11:00;24.90;;;3.00;;
9665;SDS011;4871;52.004;5.924;2024-03-23T01:12:01;24.90;;;3.00;;
9665;SDS011;4871;52.004;5.924;2024-03-23T01:13:00;24.90;;;3.00;;
9665;SDS011;4871;52.004;5.924;2024-03-23T01:14:01;24.90;;;3.00;;
9665;SDS011;4871;52.004;5.924;2024-03-23T01:15:00;24.90;;;3.00;;
9665;SDS011;4871;52.004;5.924;2024-03-23T01:16:00;24.90;;;3.00;;
9665;SDS011;4871;52.004;5.924;2024-03-23T01:17:00;24.90;;;3.00;;
9665;SDS011;4871;52.004;5.924;2024-03-23T01:18:00;24.90;;;3.00;;
9665;SDS011;4871;52.004;5.924;2024-03-23T01:19:00;24.90;;;3.00;;
9665;SDS011;4871;52.004;5.924;2024-03-23T01:20:00;24.90;;;3.00;;
9665;SDS011;4871;52.004;5.924;2024-03-23T01:21:00;24.90;;;3.00;;
9665;SDS011;4871;52.004;5.924;2024-03-23T01:22:00;24.90;;;3.00;;
9665;SDS011;4871;52.004;5.924;2024-03-23T01:23:00;24.90;;;3.00;;
9665;SDS011;4871;52.004;5.924;2024-03-23T01:24:00;24.90;;;3.00;;
9665;SDS011;4871;52.004;5.924;2024-03-23T01:25:00;24.90;;;3.00;;
9665;SDS011;4871;52.004;5.924;2024-03-23T01:26:00;21.60;;;2.60;;
9665;SDS011;4871;52.004;5.924;2024-03-23T01:27:00;21.60;;;2.60;;
9665;SDS011;4871;52.004;5.924;2024-03-23T01:28:00;21.60;;;2.60;;
9665;SDS011;4871;52.004;5.924;2024-03-23T01:29:00;21.60;;;2.60;;
9665;SDS011;4871;52.004;5.924;2024-03-23T01:30:00;21.60;;;2.60;;
9665;SDS011;4871;52.004;5.924;2024-03-23T01:31:00;21.60;;;2.60;;
9665;SDS011;4871;52.004;5.924;2024-03-23T01:32:00;21.60;;;2.60;;
9665;SDS011;4871;52.004;5.924;2024-03-23T01:33:00;21.60;;;2.60;;
9665;SDS011;4871;52.004;5.924;2024-03-23T01:34:00;21.60;;;2.60;;
9665;SDS011;4871;52.004;5.924;2024-03-23T01:35:00;21.60;;;2.60;;
9665;SDS011;4871;52.004;5.924;2024-03-23T01:36:00;21.60;;;2.60;;
9665;SDS011;4871;52.004;5.924;2024-03-23T01:37:00;21.60;;;2.60;;
9665;SDS011;4871;52.004;5.924;2024-03-23T01:38:00;21.60;;;2.60;;
9665;SDS011;4871;52.004;5.924;2024-03-23T01:39:00;21.60;;;2.60;;
9665;SDS011;4871;52.004;5.924;2024-03-23T01:40:00;21.60;;;2.60;;
9665;SDS011;4871;52.004;5.924;2024-03-23T01:41:00;21.60;;;2.60;;
9665;SDS011;4871;52.004;5.924;2024-03-23T01:42:00;21.60;;;2.60;;
9665;SDS011;4871;52.004;5.924;2024-03-23T01:43:03;21.60;;;2.60;;
9665;SDS011;4871;52.004;5.924;2024-03-23T01:44:00;21.60;;;2.60;;
9665;SDS011;4871;52.004;5.924;2024-03-23T01:45:00;21.60;;;2.60;;
9665;SDS011;4871;52.004;5.924;2024-03-23T01:46:00;21.60;;;2.60;;
9665;SDS011;4871;52.004;5.924;2024-03-23T01:47:00;21.60;;;2.60;;
9665;SDS011;4871;52.004;5.924;2024-03-23T01:48:00;21.60;;;2.60;;
9665;SDS011;4871;52.004;5.924;2024-03-23T01:49:00;21.60;;;2.60;;
9665;SDS011;4871;52.004;5.924;2024-03-23T01:50:00;21.60;;;2.60;;
9665;SDS011;4871;52.004;5.924;2024-03-23T01:51:00;21.60;;;2.60;;
9665;SDS011;4871;52.004;5.924;2024-03-23T01:52:00;21.60;;;2.60;;
9665;SDS011;4871;52.004;5.924;2024-03-23T01:53:01;21.60;;;2.60;;
9665;SDS011;4871;52.004;5.924;2024-03-23T01:54:03;21.60;;;2.60;;
9665;SDS011;4871;52.004;5.924;2024-03-23T01:55:00;21.60;;;2.60;;
9665;SDS011;4871;52.004;5.924;2024-03-23T01:56:00;17.90;;;2.60;;
9665;SDS011;4871;52.004;5.924;2024-03-23T01:57:00;17.90;;;2.60;;
9665;SDS011;4871;52.004;5.924;2024-03-23T01:58:00;17.90;;;2.60;;
9665;SDS011;4871;52.004;5.924;2024-03-23T01:59:00;17.90;;;2.60;;
9665;SDS011;4871;52.004;5.924;2024-03-23T02:00:00;17.90;;;2.60;;
9665;SDS011;4871;52.004;5.924;2024-03-23T02:01:00;17.90;;;2.60;;
9665;SDS011;4871;52.004;5.924;2024-03-23T02:02:01;17.90;;;2.60;;
9665;SDS011;4871;52.004;5.924;2024-03-23T02:03:00;17.90;;;2.60;;
9665;SDS011;4871;52.004;5.924;2024-03-23T02:04:00;17.90;;;2.60;;
9665;SDS011;4871;52.004;5.924;2024-03-23T02:05:00;17.90;;;2.60;;
9665;SDS011;4871;52.004;5.924;2024-03-23T02:06:00;17.90;;;2.60;;
9665;SDS011;4871;52.004;5.924;2024-03-23T02:07:00;17.90;;;2.60;;
9665;SDS011;4871;52.004;5.924;2024-03-23T02:08:00;17.90;;;2.60;;
9665;SDS011;4871;52.004;5.924;2024-03-23T02:09:00;17.90;;;2.60;;
9665;SDS011;4871;52.004;5.924;2024-03-23T02:10:00;17.90;;;2.60;;
9665;SDS011;4871;52.004;5.924;2024-03-23T02:11:00;17.90;;;2.60;;
9665;SDS011;4871;52.004;5.924;2024-03-23T02:12:01;17.90;;;2.60;;
9665;SDS011;4871;52.004;5.924;2024-03-23T02:13:00;17.90;;;2.60;;
9665;SDS011;4871;52.004;5.924;2024-03-23T02:14:00;17.90;;;2.60;;
9665;SDS011;4871;52.004;5.924;2024-03-23T02:15:00;17.90;;;2.60;;
9665;SDS011;4871;52.004;5.924;2024-03-23T02:16:00;17.90;;;2.60;;
9665;SDS011;4871;52.004;5.924;2024-03-23T02:17:00;17.90;;;2.60;;
9665;SDS011;4871;52.004;5.924;2024-03-23T02:18:00;17.90;;;2.60;;
9665;SDS011;4871;52.004;5.924;2024-03-23T02:19:00;17.90;;;2.60;;
9665;SDS011;4871;52.004;5.924;2024-03-23T02:20:00;17.90;;;2.60;;
9665;SDS011;4871;52.004;5.924;2024-03-23T02:21:00;17.90;;;2.60;;
9665;SDS011;4871;52.004;5.924;2024-03-23T02:22:00;17.90;;;2.60;;
9665;SDS011;4871;52.004;5.924;2024-03-23T02:23:00;17.90;;;2.60;;
9665;SDS011;4871;52.004;5.924;2024-03-23T02:24:00;17.90;;;2.60;;
9665;SDS011;4871;52.004;5.924;2024-03-23T02:25:00;17.90;;;2.60;;
9665;SDS011;4871;52.004;5.924;2024-03-23T02:26:00;14.10;;;2.00;;
9665;SDS011;4871;52.004;5.924;2024-03-23T02:27:00;14.10;;;2.00;;
9665;SDS011;4871;52.004;5.924;2024-03-23T02:28:00;14.10;;;2.00;;
9665;SDS011;4871;52.004;5.924;2024-03-23T02:29:00;14.10;;;2.00;;
9665;SDS011;4871;52.004;5.924;2024-03-23T02:30:00;14.10;;;2.00;;
9665;SDS011;4871;52.004;5.924;2024-03-23T02:31:01;14.10;;;2.00;;
9665;SDS011;4871;52.004;5.924;2024-03-23T02:32:01;14.10;;;2.00;;
9665;SDS011;4871;52.004;5.924;2024-03-23T02:33:00;14.10;;;2.00;;
9665;SDS011;4871;52.004;5.924;2024-03-23T02:34:00;14.10;;;2.00;;
9665;SDS011;4871;52.004;5.924;2024-03-23T02:35:00;14.10;;;2.00;;
9665;SDS011;4871;52.004;5.924;2024-03-23T02:36:00;14.10;;;2.00;;
9665;SDS011;4871;52.004;5.924;2024-03-23T02:37:00;14.10;;;2.00;;
9665;SDS011;4871;52.004;5.924;2024-03-23T02:38:00;14.10;;;2.00;;
9665;SDS011;4871;52.004;5.924;2024-03-23T02:39:00;14.10;;;2.00;;
9665;SDS011;4871;52.004;5.924;2024-03-23T02:40:00;14.10;;;2.00;;
9665;SDS011;4871;52.004;5.924;2024-03-23T02:41:02;14.10;;;2.00;;
9665;SDS011;4871;52.004;5.924;2024-03-23T02:42:00;14.10;;;2.00;;
9665;SDS011;4871;52.004;5.924;2024-03-23T02:43:00;14.10;;;2.00;;
9665;SDS011;4871;52.004;5.924;2024-03-23T02:44:00;14.10;;;2.00;;
9665;SDS011;4871;52.004;5.924;2024-03-23T02:45:00;14.10;;;2.00;;
9665;SDS011;4871;52.004;5.924;2024-03-23T02:46:01;14.10;;;2.00;;
9665;SDS011;4871;52.004;5.924;2024-03-23T02:47:00;14.10;;;2.00;;
9665;SDS011;4871;52.004;5.924;2024-03-23T02:48:00;14.10;;;2.00;;
9665;SDS011;4871;52.004;5.924;2024-03-23T02:49:00;14.10;;;2.00;;
9665;SDS011;4871;52.004;5.924;2024-03-23T02:50:00;14.10;;;2.00;;
9665;SDS011;4871;52.004;5.924;2024-03-23T02:51:00;14.10;;;2.00;;
9665;SDS011;4871;52.004;5.924;2024-03-23T02:52:00;14.10;;;2.00;;
9665;SDS011;4871;52.004;5.924;2024-03-23T02:53:00;14.10;;;2.00;;
9665;SDS011;4871;52.004;5.924;2024-03-23T02:54:00;14.10;;;2.00;;
9665;SDS011;4871;52.004;5.924;2024-03-23T02:55:02;14.10;;;2.00;;
9665;SDS011;4871;52.004;5.924;2024-03-23T02:56:00;17.00;;;2.40;;
9665;SDS011;4871;52.004;5.924;2024-03-23T02:57:00;17.00;;;2.40;;
9665;SDS011;4871;52.004;5.924;2024-03-23T02:58:01;17.00;;;2.40;;
9665;SDS011;4871;52.004;5.924;2024-03-23T02:59:00;17.00;;;2.40;;
9665;SDS011;4871;52.004;5.924;2024-03-23T03:00:00;17.00;;;2.40;;
9665;SDS011;4871;52.004;5.924;2024-03-23T03:01:00;17.00;;;2.40;;
9665;SDS011;4871;52.004;5.924;2024-03-23T03:02:01;17.00;;;2.40;;
9665;SDS011;4871;52.004;5.924;2024-03-23T03:03:00;17.00;;;2.40;;
9665;SDS011;4871;52.004;5.924;2024-03-23T03:04:00;17.00;;;2.40;;
9665;SDS011;4871;52.004;5.924;2024-03-23T03:05:00;17.00;;;2.40;;
9665;SDS011;4871;52.004;5.924;2024-03-23T03:06:00;17.00;;;2.40;;
9665;SDS011;4871;52.004;5.924;2024-03-23T03:07:00;17.00;;;2.40;;
9665;SDS011;4871;52.004;5.924;2024-03-23T03:08:00;17.00;;;2.40;;
9665;SDS011;4871;52.004;5.924;2024-03-23T03:09:00;17.00;;;2.40;;
9665;SDS011;4871;52.004;5.924;2024-03-23T03:10:00;17.00;;;2.40;;
9665;SDS011;4871;52.004;5.924;2024-03-23T03:11:00;17.00;;;2.40;;
9665;SDS011;4871;52.004;5.924;2024-03-23T03:12:00;17.00;;;2.40;;
9665;SDS011;4871;52.004;5.924;2024-03-23T03:13:00;17.00;;;2.40;;
9665;SDS011;4871;52.004;5.924;2024-03-23T03:14:00;17.00;;;2.40;;
9665;SDS011;4871;52.004;5.924;2024-03-23T03:15:00;17.00;;;2.40;;
9665;SDS011;4871;52.004;5.924;2024-03-23T03:16:00;17.00;;;2.40;;
9665;SDS011;4871;52.004;5.924;2024-03-23T03:17:00;17.00;;;2.40;;
9665;SDS011;4871;52.004;5.924;2024-03-23T03:18:00;17.00;;;2.40;;
9665;SDS011;4871;52.004;5.924;2024-03-23T03:19:01;17.00;;;2.40;;
9665;SDS011;4871;52.004;5.924;2024-03-23T03:20:00;17.00;;;2.40;;
9665;SDS011;4871;52.004;5.924;2024-03-23T03:21:00;17.00;;;2.40;;
9665;SDS011;4871;52.004;5.924;2024-03-23T03:22:00;17.00;;;2.40;;
9665;SDS011;4871;52.004;5.924;2024-03-23T03:23:00;17.00;;;2.40;;
9665;SDS011;4871;52.004;5.924;2024-03-23T03:24:01;17.00;;;2.40;;
9665;SDS011;4871;52.004;5.924;2024-03-23T03:25:00;17.00;;;2.40;;
9665;SDS011;4871;52.004;5.924;2024-03-23T03:26:00;20.90;;;2.90;;
9665;SDS011;4871;52.004;5.924;2024-03-23T03:27:00;20.90;;;2.90;;
9665;SDS011;4871;52.004;5.924;2024-03-23T03:28:01;20.90;;;2.90;;
9665;SDS011;4871;52.004;5.924;2024-03-23T03:29:00;20.90;;;2.90;;
9665;SDS011;4871;52.004;5.924;2024-03-23T03:30:02;20.90;;;2.90;;
9665;SDS011;4871;52.004;5.924;2024-03-23T03:31:00;20.90;;;2.90;;
9665;SDS011;4871;52.004;5.924;2024-03-23T03:32:00;20.90;;;2.90;;
9665;SDS011;4871;52.004;5.924;2024-03-23T03:33:00;20.90;;;2.90;;
9665;SDS011;4871;52.004;5.924;2024-03-23T03:34:00;20.90;;;2.90;;
9665;SDS011;4871;52.004;5.924;2024-03-23T03:35:00;20.90;;;2.90;;
9665;SDS011;4871;52.004;5.924;2024-03-23T03:36:00;20.90;;;2.90;;
9665;SDS011;4871;52.004;5.924;2024-03-23T03:37:00;20.90;;;2.90;;
9665;SDS011;4871;52.004;5.924;2024-03-23T03:38:00;20.90;;;2.90;;
9665;SDS011;4871;52.004;5.924;2024-03-23T03:39:00;20.90;;;2.90;;
9665;SDS011;4871;52.004;5.924;2024-03-23T03:40:00;20.90;;;2.90;;
9665;SDS011;4871;52.004;5.924;2024-03-23T03:41:00;20.90;;;2.90;;
9665;SDS011;4871;52.004;5.924;2024-03-23T03:42:02;20.90;;;2.90;;
9665;SDS011;4871;52.004;5.924;2024-03-23T03:43:00;20.90;;;2.90;;
9665;SDS011;4871;52.004;5.924;2024-03-23T03:44:02;20.90;;;2.90;;
9665;SDS011;4871;52.004;5.924;2024-03-23T03:45:00;20.90;;;2.90;;
9665;SDS011;4871;52.004;5.924;2024-03-23T03:46:00;20.90;;;2.90;;
9665;SDS011;4871;52.004;5.924;2024-03-23T03:47:00;20.90;;;2.90;;
9665;SDS011;4871;52.004;5.924;2024-03-23T03:48:00;20.90;;;2.90;;
9665;SDS011;4871;52.004;5.924;2024-03-23T03:49:00;20.90;;;2.90;;
9665;SDS011;4871;52.004;5.924;2024-03-23T03:50:00;20.90;;;2.90;;
9665;SDS011;4871;52.004;5.924;2024-03-23T03:51:00;20.90;;;2.90;;
9665;SDS011;4871;52.004;5.924;2024-03-23T03:52:02;20.90;;;2.90;;
9665;SDS011;4871;52.004;5.924;2024-03-23T03:53:00;20.90;;;2.90;;
9665;SDS011;4871;52.004;5.924;2024-03-23T03:54:00;20.90;;;2.90;;
9665;SDS011;4871;52.004;5.924;2024-03-23T03:55:01;20.90;;;2.90;;
9665;SDS011;4871;52.004;5.924;2024-03-23T03:56:00;16.30;;;2.50;;
9665;SDS011;4871;52.004;5.924;2024-03-23T03:57:00;16.30;;;2.50;;
9665;SDS011;4871;52.004;5.924;2024-03-23T03:58:00;16.30;;;2.50;;
9665;SDS011;4871;52.004;5.924;2024-03-23T03:59:00;16.30;;;2.50;;
9665;SDS011;4871;52.004;5.924;2024-03-23T04:00:00;16.30;;;2.50;;
9665;SDS011;4871;52.004;5.924;2024-03-23T04:01:00;16.30;;;2.50;;
9665;SDS011;4871;52.004;5.924;2024-03-23T04:02:00;16.30;;;2.50;;
9665;SDS011;4871;52.004;5.924;2024-03-23T04:03:00;16.30;;;2.50;;
9665;SDS011;4871;52.004;5.924;2024-03-23T04:04:00;16.30;;;2.50;;
9665;SDS011;4871;52.004;5.924;2024-03-23T04:05:00;16.30;;;2.50;;
9665;SDS011;4871;52.004;5.924;2024-03-23T04:06:00;16.30;;;2.50;;
9665;SDS011;4871;52.004;5.924;2024-03-23T04:07:00;16.30;;;2.50;;
9665;SDS011;4871;52.004;5.924;2024-03-23T04:08:00;16.30;;;2.50;;
9665;SDS011;4871;52.004;5.924;2024-03-23T04:09:00;16.30;;;2.50;;
9665;SDS011;4871;52.004;5.924;2024-03-23T04:10:00;16.30;;;2.50;;
9665;SDS011;4871;52.004;5.924;2024-03-23T04:11:00;16.30;;;2.50;;
9665;SDS011;4871;52.004;5.924;2024-03-23T04:12:00;16.30;;;2.50;;
9665;SDS011;4871;52.004;5.924;2024-03-23T04:13:01;16.30;;;2.50;;
9665;SDS011;4871;52.004;5.924;2024-03-23T04:14:00;16.30;;;2.50;;
9665;SDS011;4871;52.004;5.924;2024-03-23T04:15:00;16.30;;;2.50;;
9665;SDS011;4871;52.004;5.924;2024-03-23T04:16:00;16.30;;;2.50;;
9665;SDS011;4871;52.004;5.924;2024-03-23T04:17:00;16.30;;;2.50;;
9665;SDS011;4871;52.004;5.924;2024-03-23T04:18:00;16.30;;;2.50;;
9665;SDS011;4871;52.004;5.924;2024-03-23T04:19:00;16.30;;;2.50;;
9665;SDS011;4871;52.004;5.924;2024-03-23T04:20:00;16.30;;;2.50;;
9665;SDS011;4871;52.004;5.924;2024-03-23T04:21:00;16.30;;;2.50;;
9665;SDS011;4871;52.004;5.924;2024-03-23T04:22:00;16.30;;;2.50;;
9665;SDS011;4871;52.004;5.924;2024-03-23T04:23:00;16.30;;;2.50;;
9665;SDS011;4871;52.004;5.924;2024-03-23T04:24:00;16.30;;;2.50;;
9665;SDS011;4871;52.004;5.924;2024-03-23T04:25:03;16.30;;;2.50;;
9665;SDS011;4871;52.004;5.924;2024-03-23T04:26:03;13.40;;;2.10;;
9665;SDS011;4871;52.004;5.924;2024-03-23T04:27:00;13.40;;;2.10;;
9665;SDS011;4871;52.004;5.924;2024-03-23T04:28:00;13.40;;;2.10;;
9665;SDS011;4871;52.004;5.924;2024-03-23T04:29:01;13.40;;;2.10;;
9665;SDS011;4871;52.004;5.924;2024-03-23T04:30:01;13.40;;;2.10;;
9665;SDS011;4871;52.004;5.924;2024-03-23T04:31:03;13.40;;;2.10;;
9665;SDS011;4871;52.004;5.924;2024-03-23T04:32:01;13.40;;;2.10;;
9665;SDS011;4871;52.004;5.924;2024-03-23T04:33:01;13.40;;;2.10;;
9665;SDS011;4871;52.004;5.924;2024-03-23T04:34:00;13.40;;;2.10;;
9665;SDS011;4871;52.004;5.924;2024-03-23T04:35:00;13.40;;;2.10;;
9665;SDS011;4871;52.004;5.924;2024-03-23T04:36:00;13.40;;;2.10;;
9665;SDS011;4871;52.004;5.924;2024-03-23T04:37:00;13.40;;;2.10;;
9665;SDS011;4871;52.004;5.924;2024-03-23T04:38:00;13.40;;;2.10;;
9665;SDS011;4871;52.004;5.924;2024-03-23T04:39:00;13.40;;;2.10;;
9665;SDS011;4871;52.004;5.924;2024-03-23T04:40:01;13.40;;;2.10;;
9665;SDS011;4871;52.004;5.924;2024-03-23T04:41:02;13.40;;;2.10;;
9665;SDS011;4871;52.004;5.924;2024-03-23T04:42:01;13.40;;;2.10;;
9665;SDS011;4871;52.004;5.924;2024-03-23T04:43:01;13.40;;;2.10;;
9665;SDS011;4871;52.004;5.924;2024-03-23T04:44:00;13.40;;;2.10;;
9665;SDS011;4871;52.004;5.924;2024-03-23T04:45:00;13.40;;;2.10;;
9665;SDS011;4871;52.004;5.924;2024-03-23T04:46:01;13.40;;;2.10;;
9665;SDS011;4871;52.004;5.924;2024-03-23T04:47:00;13.40;;;2.10;;
9665;SDS011;4871;52.004;5.924;2024-03-23T04:48:00;13.40;;;2.10;;
9665;SDS011;4871;52.004;5.924;2024-03-23T04:49:00;13.40;;;2.10;;
9665;SDS011;4871;52.004;5.924;2024-03-23T04:50:01;13.40;;;2.10;;
9665;SDS011;4871;52.004;5.924;2024-03-23T04:51:00;13.40;;;2.10;;
9665;SDS011;4871;52.004;5.924;2024-03-23T04:52:00;13.40;;;2.10;;
9665;SDS011;4871;52.004;5.924;2024-03-23T04:53:00;13.40;;;2.10;;
9665;SDS011;4871;52.004;5.924;2024-03-23T04:54:00;13.40;;;2.10;;
9665;SDS011;4871;52.004;5.924;2024-03-23T04:55:00;13.40;;;2.10;;
9665;SDS011;4871;52.004;5.924;2024-03-23T04:56:00;16.80;;;2.60;;
9665;SDS011;4871;52.004;5.924;2024-03-23T04:57:00;16.80;;;2.60;;
9665;SDS011;4871;52.004;5.924;2024-03-23T04:58:00;16.80;;;2.60;;
9665;SDS011;4871;52.004;5.924;2024-03-23T04:59:01;16.80;;;2.60;;
9665;SDS011;4871;52.004;5.924;2024-03-23T05:00:01;16.80;;;2.60;;
9665;SDS011;4871;52.004;5.924;2024-03-23T05:01:00;16.80;;;2.60;;
9665;SDS011;4871;52.004;5.924;2024-03-23T05:02:00;16.80;;;2.60;;
9665;SDS011;4871;52.004;5.924;2024-03-23T05:03:00;16.80;;;2.60;;
9665;SDS011;4871;52.004;5.924;2024-03-23T05:04:01;16.80;;;2.60;;
9665;SDS011;4871;52.004;5.924;2024-03-23T05:05:00;16.80;;;2.60;;
9665;SDS011;4871;52.004;5.924;2024-03-23T05:06:00;16.80;;;2.60;;
9665;SDS011;4871;52.004;5.924;2024-03-23T05:07:00;16.80;;;2.60;;
9665;SDS011;4871;52.004;5.924;2024-03-23T05:08:00;16.80;;;2.60;;
9665;SDS011;4871;52.004;5.924;2024-03-23T05:09:05;16.80;;;2.60;;
9665;SDS011;4871;52.004;5.924;2024-03-23T05:10:00;16.80;;;2.60;;
9665;SDS011;4871;52.004;5.924;2024-03-23T05:11:00;16.80;;;2.60;;
9665;SDS011;4871;52.004;5.924;2024-03-23T05:12:00;16.80;;;2.60;;
9665;SDS011;4871;52.004;5.924;2024-03-23T05:13:00;16.80;;;2.60;;
9665;SDS011;4871;52.004;5.924;2024-03-23T05:14:00;16.80;;;2.60;;
9665;SDS011;4871;52.004;5.924;2024-03-23T05:15:00;16.80;;;2.60;;
9665;SDS011;4871;52.004;5.924;2024-03-23T05:16:00;16.80;;;2.60;;
9665;SDS011;4871;52.004;5.924;2024-03-23T05:17:00;16.80;;;2.60;;
9665;SDS011;4871;52.004;5.924;2024-03-23T05:18:00;16.80;;;2.60;;
9665;SDS011;4871;52.004;5.924;2024-03-23T05:19:00;16.80;;;2.60;;
9665;SDS011;4871;52.004;5.924;2024-03-23T05:20:00;16.80;;;2.60;;
9665;SDS011;4871;52.004;5.924;2024-03-23T05:21:00;16.80;;;2.60;;
9665;SDS011;4871;52.004;5.924;2024-03-23T05:22:00;16.80;;;2.60;;
9665;SDS011;4871;52.004;5.924;2024-03-23T05:23:00;16.80;;;2.60;;
9665;SDS011;4871;52.004;5.924;2024-03-23T05:24:00;16.80;;;2.60;;
9665;SDS011;4871;52.004;5.924;2024-03-23T05:25:00;16.80;;;2.60;;
9665;SDS011;4871;52.004;5.924;2024-03-23T05:26:00;15.60;;;2.50;;
9665;SDS011;4871;52.004;5.924;2024-03-23T05:27:00;15.60;;;2.50;;
9665;SDS011;4871;52.004;5.924;2024-03-23T05:28:00;15.60;;;2.50;;
9665;SDS011;4871;52.004;5.924;2024-03-23T05:29:00;15.60;;;2.50;;
9665;SDS011;4871;52.004;5.924;2024-03-23T05:30:00;15.60;;;2.50;;
9665;SDS011;4871;52.004;5.924;2024-03-23T05:31:00;15.60;;;2.50;;
9665;SDS011;4871;52.004;5.924;2024-03-23T05:32:00;15.60;;;2.50;;
9665;SDS011;4871;52.004;5.924;2024-03-23T05:33:00;15.60;;;2.50;;
9665;SDS011;4871;52.004;5.924;2024-03-23T05:34:00;15.60;;;2.50;;
9665;SDS011;4871;52.004;5.924;2024-03-23T05:35:01;15.60;;;2.50;;
9665;SDS011;4871;52.004;5.924;2024-03-23T05:36:01;15.60;;;2.50;;
9665;SDS011;4871;52.004;5.924;2024-03-23T05:37:00;15.60;;;2.50;;
9665;SDS011;4871;52.004;5.924;2024-03-23T05:38:00;15.60;;;2.50;;
9665;SDS011;4871;52.004;5.924;2024-03-23T05:39:00;15.60;;;2.50;;
9665;SDS011;4871;52.004;5.924;2024-03-23T05:40:00;15.60;;;2.50;;
9665;SDS011;4871;52.004;5.924;2024-03-23T05:41:00;15.60;;;2.50;;
9665;SDS011;4871;52.004;5.924;2024-03-23T05:42:01;15.60;;;2.50;;
9665;SDS011;4871;52.004;5.924;2024-03-23T05:43:00;15.60;;;2.50;;
9665;SDS011;4871;52.004;5.924;2024-03-23T05:44:00;15.60;;;2.50;;
9665;SDS011;4871;52.004;5.924;2024-03-23T05:45:00;15.60;;;2.50;;
9665;SDS011;4871;52.004;5.924;2024-03-23T05:46:01;15.60;;;2.50;;
9665;SDS011;4871;52.004;5.924;2024-03-23T05:47:00;15.60;;;2.50;;
9665;SDS011;4871;52.004;5.924;2024-03-23T05:48:00;15.60;;;2.50;;
9665;SDS011;4871;52.004;5.924;2024-03-23T05:49:00;15.60;;;2.50;;
9665;SDS011;4871;52.004;5.924;2024-03-23T05:50:01;15.60;;;2.50;;
9665;SDS011;4871;52.004;5.924;2024-03-23T05:51:00;15.60;;;2.50;;
9665;SDS011;4871;52.004;5.924;2024-03-23T05:52:02;15.60;;;2.50;;
9665;SDS011;4871;52.004;5.924;2024-03-23T05:53:00;15.60;;;2.50;;
9665;SDS011;4871;52.004;5.924;2024-03-23T05:54:01;15.60;;;2.50;;
9665;SDS011;4871;52.004;5.924;2024-03-23T05:55:00;15.60;;;2.50;;
9665;SDS011;4871;52.004;5.924;2024-03-23T05:56:00;16.50;;;2.50;;
9665;SDS011;4871;52.004;5.924;2024-03-23T05:57:00;16.50;;;2.50;;
9665;SDS011;4871;52.004;5.924;2024-03-23T05:58:00;16.50;;;2.50;;
9665;SDS011;4871;52.004;5.924;2024-03-23T05:59:00;16.50;;;2.50;;
9665;SDS011;4871;52.004;5.924;2024-03-23T06:00:00;16.50;;;2.50;;
9665;SDS011;4871;52.004;5.924;2024-03-23T06:01:01;16.50;;;2.50;;
9665;SDS011;4871;52.004;5.924;2024-03-23T06:02:00;16.50;;;2.50;;
9665;SDS011;4871;52.004;5.924;2024-03-23T06:03:00;16.50;;;2.50;;
9665;SDS011;4871;52.004;5.924;2024-03-23T06:04:01;16.50;;;2.50;;
9665;SDS011;4871;52.004;5.924;2024-03-23T06:05:02;16.50;;;2.50;;
9665;SDS011;4871;52.004;5.924;2024-03-23T06:06:00;16.50;;;2.50;;
9665;SDS011;4871;52.004;5.924;2024-03-23T06:07:00;16.50;;;2.50;;
9665;SDS011;4871;52.004;5.924;2024-03-23T06:08:00;16.50;;;2.50;;
9665;SDS011;4871;52.004;5.924;2024-03-23T06:09:00;16.50;;;2.50;;
9665;SDS011;4871;52.004;5.924;2024-03-23T06:10:00;16.50;;;2.50;;
9665;SDS011;4871;52.004;5.924;2024-03-23T06:11:00;16.50;;;2.50;;
9665;SDS011;4871;52.004;5.924;2024-03-23T06:12:00;16.50;;;2.50;;
9665;SDS011;4871;52.004;5.924;2024-03-23T06:13:00;16.50;;;2.50;;
9665;SDS011;4871;52.004;5.924;2024-03-23T06:14:00;16.50;;;2.50;;
9665;SDS011;4871;52.004;5.924;2024-03-23T06:15:00;16.50;;;2.50;;
9665;SDS011;4871;52.004;5.924;2024-03-23T06:16:00;16.50;;;2.50;;
9665;SDS011;4871;52.004;5.924;2024-03-23T06:17:00;16.50;;;2.50;;
9665;SDS011;4871;52.004;5.924;2024-03-23T06:18:00;16.50;;;2.50;;
9665;SDS011;4871;52.004;5.924;2024-03-23T06:19:00;16.50;;;2.50;;
9665;SDS011;4871;52.004;5.924;2024-03-23T06:20:00;16.50;;;2.50;;
9665;SDS011;4871;52.004;5.924;2024-03-23T06:21:00;16.50;;;2.50;;
9665;SDS011;4871;52.004;5.924;2024-03-23T06:22:00;16.50;;;2.50;;
9665;SDS011;4871;52.004;5.924;2024-03-23T06:23:00;16.50;;;2.50;;
9665;SDS011;4871;52.004;5.924;2024-03-23T06:24:00;16.50;;;2.50;;
9665;SDS011;4871;52.004;5.924;2024-03-23T06:25:00;16.50;;;2.50;;
9665;SDS011;4871;52.004;5.924;2024-03-23T06:26:00;11.90;;;2.00;;
9665;SDS011;4871;52.004;5.924;2024-03-23T06:27:00;11.90;;;2.00;;
9665;SDS011;4871;52.004;5.924;2024-03-23T06:28:02;11.90;;;2.00;;
9665;SDS011;4871;52.004;5.924;2024-03-23T06:29:00;11.90;;;2.00;;
9665;SDS011;4871;52.004;5.924;2024-03-23T06:30:00;11.90;;;2.00;;
9665;SDS011;4871;52.004;5.924;2024-03-23T06:31:00;11.90;;;2.00;;
9665;SDS011;4871;52.004;5.924;2024-03-23T06:32:00;11.90;;;2.00;;
9665;SDS011;4871;52.004;5.924;2024-03-23T06:33:00;11.90;;;2.00;;
9665;SDS011;4871;52.004;5.924;2024-03-23T06:34:01;11.90;;;2.00;;
9665;SDS011;4871;52.004;5.924;2024-03-23T06:35:05;11.90;;;2.00;;
9665;SDS011;4871;52.004;5.924;2024-03-23T06:36:00;11.90;;;2.00;;
9665;SDS011;4871;52.004;5.924;2024-03-23T06:37:00;11.90;;;2.00;;
9665;SDS011;4871;52.004;5.924;2024-03-23T06:38:00;11.90;;;2.00;;
9665;SDS011;4871;52.004;5.924;2024-03-23T06:39:00;11.90;;;2.00;;
9665;SDS011;4871;52.004;5.924;2024-03-23T06:40:00;11.90;;;2.00;;
9665;SDS011;4871;52.004;5.924;2024-03-23T06:41:02;11.90;;;2.00;;
9665;SDS011;4871;52.004;5.924;2024-03-23T06:42:00;11.90;;;2.00;;
9665;SDS011;4871;52.004;5.924;2024-03-23T06:43:00;11.90;;;2.00;;
9665;SDS011;4871;52.004;5.924;2024-03-23T06:44:00;11.90;;;2.00;;
9665;SDS011;4871;52.004;5.924;2024-03-23T06:45:00;11.90;;;2.00;;
9665;SDS011;4871;52.004;5.924;2024-03-23T06:46:01;11.90;;;2.00;;
9665;SDS011;4871;52.004;5.924;2024-03-23T06:47:00;11.90;;;2.00;;
9665;SDS011;4871;52.004;5.924;2024-03-23T06:48:00;11.90;;;2.00;;
9665;SDS011;4871;52.004;5.924;2024-03-23T06:49:00;11.90;;;2.00;;
9665;SDS011;4871;52.004;5.924;2024-03-23T06:50:02;11.90;;;2.00;;
9665;SDS011;4871;52.004;5.924;2024-03-23T06:51:00;11.90;;;2.00;;
9665;SDS011;4871;52.004;5.924;2024-03-23T06:52:00;11.90;;;2.00;;
9665;SDS011;4871;52.004;5.924;2024-03-23T06:53:02;11.90;;;2.00;;
9665;SDS011;4871;52.004;5.924;2024-03-23T06:54:00;11.90;;;2.00;;
9665;SDS011;4871;52.004;5.924;2024-03-23T06:55:00;11.90;;;2.00;;
9665;SDS011;4871;52.004;5.924;2024-03-23T06:56:01;16.70;;;2.50;;
9665;SDS011;4871;52.004;5.924;2024-03-23T06:57:00;16.70;;;2.50;;
9665;SDS011;4871;52.004;5.924;2024-03-23T06:58:00;16.70;;;2.50;;